sensor_id;sensor_type;location;lat;lon;timestamp;pressure;altitude;pressure_sealevel;temperature;humidity
61018;BME280;48171;51.550;5.434;2023-04-30T00:00:39;102343.78;;;9.18;83.17
61018;BME280;48171;51.550;5.434;2023-04-30T00:03:04;102335.84;;;9.16;83.20
61018;BME280;48171;51.550;5.434;2023-04-30T00:05:30;102331.41;;;9.14;84.17
61018;BME280;48171;51.550;5.434;2023-04-30T00:07:55;102333.97;;;9.12;84.11
61018;BME280;48171;51.550;5.434;2023-04-30T00:10:21;102331.25;;;9.08;84.28
61018;BME280;48171;51.550;5.434;2023-04-30T00:12:46;102336.47;;;9.06;85.28
61018;BME280;48171;51.550;5.434;2023-04-30T00:15:11;102341.72;;;9.05;85.30
61018;BME280;48171;51.550;5.434;2023-04-30T00:17:37;102338.16;;;9.02;85.44
61018;BME280;48171;51.550;5.434;2023-04-30T00:20:02;102341.66;;;9.01;85.92
61018;BME280;48171;51.550;5.434;2023-04-30T00:22:28;102346.00;;;8.99;85.97
61018;BME280;48171;51.550;5.434;2023-04-30T00:24:53;102338.94;;;8.98;85.77
61018;BME280;48171;51.550;5.434;2023-04-30T00:27:18;102343.28;;;8.96;86.34
61018;BME280;48171;51.550;5.434;2023-04-30T00:29:44;102341.47;;;8.94;86.76
61018;BME280;48171;51.550;5.434;2023-04-30T00:32:09;102338.84;;;8.94;86.40
61018;BME280;48171;51.550;5.434;2023-04-30T00:34:34;102343.13;;;8.90;86.75
61018;BME280;48171;51.550;5.434;2023-04-30T00:36:59;102335.13;;;8.86;87.14
61018;BME280;48171;51.550;5.434;2023-04-30T00:39:25;102341.22;;;8.85;86.54
61018;BME280;48171;51.550;5.434;2023-04-30T00:41:50;102343.81;;;8.81;86.57
61018;BME280;48171;51.550;5.434;2023-04-30T00:44:15;102344.59;;;8.77;87.27
61018;BME280;48171;51.550;5.434;2023-04-30T00:46:41;102343.63;;;8.74;87.27
61018;BME280;48171;51.550;5.434;2023-04-30T00:49:06;102346.94;;;8.65;86.81
61018;BME280;48171;51.550;5.434;2023-04-30T00:51:32;102353.03;;;8.63;88.03
61018;BME280;48171;51.550;5.434;2023-04-30T00:54:00;102351.22;;;8.61;88.60
61018;BME280;48171;51.550;5.434;2023-04-30T00:56:27;102346.78;;;8.59;88.66
61018;BME280;48171;51.550;5.434;2023-04-30T00:58:54;102346.72;;;8.57;90.37
61018;BME280;48171;51.550;5.434;2023-04-30T01:01:25;102344.97;;;8.56;89.27
61018;BME280;48171;51.550;5.434;2023-04-30T01:03:52;102341.34;;;8.53;89.41
61018;BME280;48171;51.550;5.434;2023-04-30T01:06:17;102341.34;;;8.53;89.71
61018;BME280;48171;51.550;5.434;2023-04-30T01:08:43;102337.75;;;8.49;89.18
61018;BME280;48171;51.550;5.434;2023-04-30T01:13:50;102332.66;;;8.57;87.79
61018;BME280;48171;51.550;5.434;2023-04-30T01:16:21;102337.63;;;8.46;88.24
61018;BME280;48171;51.550;5.434;2023-04-30T01:18:53;102339.16;;;8.38;88.47
61018;BME280;48171;51.550;5.434;2023-04-30T01:21:21;102336.41;;;8.33;89.16
61018;BME280;48171;51.550;5.434;2023-04-30T01:23:59;102338.13;;;8.31;90.16
61018;BME280;48171;51.550;5.434;2023-04-30T01:29:21;102329.22;;;8.28;90.46
61018;BME280;48171;51.550;5.434;2023-04-30T01:31:46;102332.78;;;8.28;90.76
61018;BME280;48171;51.550;5.434;2023-04-30T01:34:11;102336.25;;;8.27;91.58
61018;BME280;48171;51.550;5.434;2023-04-30T01:39:38;102339.75;;;8.26;91.49
61018;BME280;48171;51.550;5.434;2023-04-30T01:42:22;102343.16;;;8.24;91.62
61018;BME280;48171;51.550;5.434;2023-04-30T01:45:17;102336.13;;;8.23;91.35
61018;BME280;48171;51.550;5.434;2023-04-30T01:47:58;102349.19;;;8.19;91.76
61018;BME280;48171;51.550;5.434;2023-04-30T01:50:42;102343.88;;;8.16;92.27
61018;BME280;48171;51.550;5.434;2023-04-30T01:53:27;102345.59;;;8.16;93.12
61018;BME280;48171;51.550;5.434;2023-04-30T01:56:02;102346.41;;;8.13;93.15
61018;BME280;48171;51.550;5.434;2023-04-30T01:58:28;102347.28;;;8.12;93.45
61018;BME280;48171;51.550;5.434;2023-04-30T02:00:54;102340.16;;;8.10;93.11
61018;BME280;48171;51.550;5.434;2023-04-30T02:03:20;102336.59;;;8.08;93.35
61018;BME280;48171;51.550;5.434;2023-04-30T02:05:46;102344.41;;;8.05;93.30
61018;BME280;48171;51.550;5.434;2023-04-30T02:08:12;102338.22;;;8.02;94.11
61018;BME280;48171;51.550;5.434;2023-04-30T02:10:37;102341.66;;;8.00;93.67
61018;BME280;48171;51.550;5.434;2023-04-30T02:13:03;102342.50;;;7.99;93.81
61018;BME280;48171;51.550;5.434;2023-04-30T02:15:28;102350.44;;;8.00;93.80
61018;BME280;48171;51.550;5.434;2023-04-30T02:17:53;102352.19;;;8.00;94.45
61018;BME280;48171;51.550;5.434;2023-04-30T02:20:18;102348.63;;;7.98;95.24
61018;BME280;48171;51.550;5.434;2023-04-30T02:22:44;102340.63;;;7.95;95.34
61018;BME280;48171;51.550;5.434;2023-04-30T02:25:09;102349.41;;;7.94;94.72
61018;BME280;48171;51.550;5.434;2023-04-30T02:27:36;102346.53;;;7.86;94.58
61018;BME280;48171;51.550;5.434;2023-04-30T02:30:02;102350.00;;;7.85;94.60
61018;BME280;48171;51.550;5.434;2023-04-30T02:32:28;102354.38;;;7.85;95.10
61018;BME280;48171;51.550;5.434;2023-04-30T02:34:53;102346.53;;;7.86;94.85
61018;BME280;48171;51.550;5.434;2023-04-30T02:37:19;102350.94;;;7.87;94.78
61018;BME280;48171;51.550;5.434;2023-04-30T02:39:44;102349.13;;;7.85;95.49
61018;BME280;48171;51.550;5.434;2023-04-30T02:42:09;102343.75;;;7.80;95.02
61018;BME280;48171;51.550;5.434;2023-04-30T02:44:35;102346.28;;;7.77;95.02
61018;BME280;48171;51.550;5.434;2023-04-30T02:47:00;102344.44;;;7.74;94.73
61018;BME280;48171;51.550;5.434;2023-04-30T02:49:26;102340.97;;;7.75;95.19
61018;BME280;48171;51.550;5.434;2023-04-30T02:51:52;102341.81;;;7.74;94.98
61018;BME280;48171;51.550;5.434;2023-04-30T02:54:18;102336.44;;;7.71;95.08
61018;BME280;48171;51.550;5.434;2023-04-30T02:56:43;102340.84;;;7.71;94.67
61018;BME280;48171;51.550;5.434;2023-04-30T02:59:09;102339.06;;;7.70;95.05
61018;BME280;48171;51.550;5.434;2023-04-30T03:01:34;102338.16;;;7.69;94.66
61018;BME280;48171;51.550;5.434;2023-04-30T03:03:59;102339.13;;;7.73;95.65
61018;BME280;48171;51.550;5.434;2023-04-30T03:06:25;102332.09;;;7.72;96.02
61018;BME280;48171;51.550;5.434;2023-04-30T03:08:50;102335.63;;;7.72;96.10
61018;BME280;48171;51.550;5.434;2023-04-30T03:11:15;102332.94;;;7.71;95.79
61018;BME280;48171;51.550;5.434;2023-04-30T03:13:42;102332.81;;;7.66;94.65
61018;BME280;48171;51.550;5.434;2023-04-30T03:16:07;102338.78;;;7.60;94.59
61018;BME280;48171;51.550;5.434;2023-04-30T03:18:32;102332.53;;;7.57;94.93
61018;BME280;48171;51.550;5.434;2023-04-30T03:20:58;102331.59;;;7.55;95.25
61018;BME280;48171;51.550;5.434;2023-04-30T03:23:25;102330.59;;;7.51;94.77
61018;BME280;48171;51.550;5.434;2023-04-30T03:25:51;102336.63;;;7.47;95.18
61018;BME280;48171;51.550;5.434;2023-04-30T03:28:17;102338.28;;;7.44;95.05
61018;BME280;48171;51.550;5.434;2023-04-30T03:30:42;102334.69;;;7.40;95.27
61018;BME280;48171;51.550;5.434;2023-04-30T03:33:07;102329.28;;;7.35;95.28
61018;BME280;48171;51.550;5.434;2023-04-30T03:35:33;102334.44;;;7.32;95.99
61018;BME280;48171;51.550;5.434;2023-04-30T03:37:59;102329.03;;;7.28;96.63
61018;BME280;48171;51.550;5.434;2023-04-30T03:40:25;102326.50;;;7.31;96.97
61018;BME280;48171;51.550;5.434;2023-04-30T03:42:50;102335.31;;;7.31;96.80
61018;BME280;48171;51.550;5.434;2023-04-30T03:45:15;102340.56;;;7.31;97.17
61018;BME280;48171;51.550;5.434;2023-04-30T03:47:42;102337.13;;;7.34;96.80
61018;BME280;48171;51.550;5.434;2023-04-30T03:50:08;102338.88;;;7.35;97.62
61018;BME280;48171;51.550;5.434;2023-04-30T03:52:33;102331.75;;;7.31;97.53
61018;BME280;48171;51.550;5.434;2023-04-30T03:54:58;102338.75;;;7.30;97.51
61018;BME280;48171;51.550;5.434;2023-04-30T03:57:23;102347.50;;;7.29;97.21
61018;BME280;48171;51.550;5.434;2023-04-30T03:59:49;102351.81;;;7.27;97.11
61018;BME280;48171;51.550;5.434;2023-04-30T04:02:14;102340.38;;;7.25;96.90
61018;BME280;48171;51.550;5.434;2023-04-30T04:04:41;102351.59;;;7.19;97.43
61018;BME280;48171;51.550;5.434;2023-04-30T04:07:06;102354.09;;;7.16;97.25
61018;BME280;48171;51.550;5.434;2023-04-30T04:09:33;102351.38;;;7.13;97.64
61018;BME280;48171;51.550;5.434;2023-04-30T04:11:59;102350.53;;;7.14;98.56
61018;BME280;48171;51.550;5.434;2023-04-30T04:14:25;102349.59;;;7.12;98.72
61018;BME280;48171;51.550;5.434;2023-04-30T04:16:50;102354.03;;;7.13;99.45
61018;BME280;48171;51.550;5.434;2023-04-30T04:19:15;102354.03;;;7.13;99.17
61018;BME280;48171;51.550;5.434;2023-04-30T04:21:41;102353.97;;;7.12;98.77
61018;BME280;48171;51.550;5.434;2023-04-30T04:24:06;102354.84;;;7.12;98.74
61018;BME280;48171;51.550;5.434;2023-04-30T04:26:35;102359.09;;;7.09;99.06
61018;BME280;48171;51.550;5.434;2023-04-30T04:29:02;102357.34;;;7.08;98.61
61018;BME280;48171;51.550;5.434;2023-04-30T04:31:29;102350.16;;;7.02;98.29
61018;BME280;48171;51.550;5.434;2023-04-30T04:33:55;102352.78;;;7.02;98.16
61018;BME280;48171;51.550;5.434;2023-04-30T04:36:24;102369.41;;;7.01;98.44
61018;BME280;48171;51.550;5.434;2023-04-30T04:38:51;102361.53;;;7.03;98.72
61018;BME280;48171;51.550;5.434;2023-04-30T04:41:16;102358.97;;;7.04;98.67
61018;BME280;48171;51.550;5.434;2023-04-30T04:43:42;102364.22;;;7.04;98.99
61018;BME280;48171;51.550;5.434;2023-04-30T04:46:08;102360.78;;;7.05;99.19
61018;BME280;48171;51.550;5.434;2023-04-30T04:48:33;102366.97;;;7.07;99.26
61018;BME280;48171;51.550;5.434;2023-04-30T04:50:58;102369.59;;;7.07;99.06
61018;BME280;48171;51.550;5.434;2023-04-30T04:53:23;102369.53;;;7.06;99.19
61018;BME280;48171;51.550;5.434;2023-04-30T04:55:49;102375.72;;;7.08;98.78
61018;BME280;48171;51.550;5.434;2023-04-30T04:58:14;102374.88;;;7.09;99.08
61018;BME280;48171;51.550;5.434;2023-04-30T05:00:39;102371.41;;;7.10;98.82
61018;BME280;48171;51.550;5.434;2023-04-30T05:03:05;102370.53;;;7.09;98.98
61018;BME280;48171;51.550;5.434;2023-04-30T05:05:30;102379.38;;;7.11;98.53
61018;BME280;48171;51.550;5.434;2023-04-30T05:07:55;102380.31;;;7.13;98.87
61018;BME280;48171;51.550;5.434;2023-04-30T05:10:20;102376.75;;;7.13;98.92
61018;BME280;48171;51.550;5.434;2023-04-30T05:12:46;102377.63;;;7.12;99.96
61018;BME280;48171;51.550;5.434;2023-04-30T05:15:11;102367.03;;;7.10;99.68
61018;BME280;48171;51.550;5.434;2023-04-30T05:17:36;102374.19;;;7.14;100.00
61018;BME280;48171;51.550;5.434;2023-04-30T05:20:02;102373.34;;;7.15;100.00
61018;BME280;48171;51.550;5.434;2023-04-30T05:22:27;102365.50;;;7.17;100.00
61018;BME280;48171;51.550;5.434;2023-04-30T05:24:52;102364.72;;;7.19;100.00
61018;BME280;48171;51.550;5.434;2023-04-30T05:27:17;102363.03;;;7.21;100.00
61018;BME280;48171;51.550;5.434;2023-04-30T05:29:43;102365.75;;;7.25;100.00
61018;BME280;48171;51.550;5.434;2023-04-30T05:32:08;102368.47;;;7.28;100.00
61018;BME280;48171;51.550;5.434;2023-04-30T05:34:33;102365.91;;;7.29;100.00
61018;BME280;48171;51.550;5.434;2023-04-30T05:36:58;102360.66;;;7.31;100.00
61018;BME280;48171;51.550;5.434;2023-04-30T05:39:25;102372.13;;;7.33;100.00
61018;BME280;48171;51.550;5.434;2023-04-30T05:41:50;102373.06;;;7.35;100.00
61018;BME280;48171;51.550;5.434;2023-04-30T05:44:16;102380.25;;;7.40;100.00
61018;BME280;48171;51.550;5.434;2023-04-30T05:46:41;102372.44;;;7.42;100.00
61018;BME280;48171;51.550;5.434;2023-04-30T05:49:06;102368.16;;;7.46;100.00
61018;BME280;48171;51.550;5.434;2023-04-30T05:51:32;102364.72;;;7.48;100.00
61018;BME280;48171;51.550;5.434;2023-04-30T05:53:57;102366.50;;;7.49;100.00
61018;BME280;48171;51.550;5.434;2023-04-30T05:56:22;102363.97;;;7.52;100.00
61018;BME280;48171;51.550;5.434;2023-04-30T05:58:48;102367.53;;;7.54;100.00
61018;BME280;48171;51.550;5.434;2023-04-30T06:01:15;102365.91;;;7.58;100.00
61018;BME280;48171;51.550;5.434;2023-04-30T06:03:41;102370.34;;;7.60;100.00
61018;BME280;48171;51.550;5.434;2023-04-30T06:06:06;102366.03;;;7.63;100.00
61018;BME280;48171;51.550;5.434;2023-04-30T06:08:31;102368.72;;;7.64;100.00
61018;BME280;48171;51.550;5.434;2023-04-30T06:10:57;102366.97;;;7.65;100.00
61018;BME280;48171;51.550;5.434;2023-04-30T06:13:22;102374.03;;;7.67;100.00
61018;BME280;48171;51.550;5.434;2023-04-30T06:15:48;102366.19;;;7.69;100.00
61018;BME280;48171;51.550;5.434;2023-04-30T06:18:13;102371.56;;;7.72;100.00
61018;BME280;48171;51.550;5.434;2023-04-30T06:20:39;102376.06;;;7.76;100.00
61018;BME280;48171;51.550;5.434;2023-04-30T06:23:04;102372.56;;;7.77;100.00
61018;BME280;48171;51.550;5.434;2023-04-30T06:25:29;102368.38;;;7.84;100.00
61018;BME280;48171;51.550;5.434;2023-04-30T06:27:55;102368.47;;;7.87;100.00
61018;BME280;48171;51.550;5.434;2023-04-30T06:30:20;102365.03;;;7.89;100.00
61018;BME280;48171;51.550;5.434;2023-04-30T06:32:45;102361.63;;;7.92;100.00
61018;BME280;48171;51.550;5.434;2023-04-30T06:35:10;102365.22;;;7.95;100.00
61018;BME280;48171;51.550;5.434;2023-04-30T06:37:36;102366.25;;;8.00;100.00
61018;BME280;48171;51.550;5.434;2023-04-30T06:40:05;102354.91;;;8.03;100.00
61018;BME280;48171;51.550;5.434;2023-04-30T06:42:30;102359.41;;;8.07;100.00
61018;BME280;48171;51.550;5.434;2023-04-30T06:44:59;102356.88;;;8.10;100.00
61018;BME280;48171;51.550;5.434;2023-04-30T06:47:25;102362.25;;;8.15;100.00
61018;BME280;48171;51.550;5.434;2023-04-30T06:49:50;102361.44;;;8.17;100.00
61018;BME280;48171;51.550;5.434;2023-04-30T06:52:16;102359.78;;;8.21;100.00
61018;BME280;48171;51.550;5.434;2023-04-30T06:54:41;102362.53;;;8.26;100.00
61018;BME280;48171;51.550;5.434;2023-04-30T06:57:07;102360.88;;;8.29;100.00
61018;BME280;48171;51.550;5.434;2023-04-30T06:59:33;102369.75;;;8.33;100.00
61018;BME280;48171;51.550;5.434;2023-04-30T07:01:58;102377.78;;;8.37;100.00
61018;BME280;48171;51.550;5.434;2023-04-30T07:04:23;102377.88;;;8.40;100.00
61018;BME280;48171;51.550;5.434;2023-04-30T07:06:49;102372.69;;;8.44;100.00
61018;BME280;48171;51.550;5.434;2023-04-30T07:09:15;102378.94;;;8.47;100.00
61018;BME280;48171;51.550;5.434;2023-04-30T07:11:40;102380.75;;;8.50;100.00
61018;BME280;48171;51.550;5.434;2023-04-30T07:14:06;102380.88;;;8.53;100.00
61018;BME280;48171;51.550;5.434;2023-04-30T07:16:32;102370.38;;;8.56;100.00
61018;BME280;48171;51.550;5.434;2023-04-30T07:18:57;102372.28;;;8.61;100.00
61018;BME280;48171;51.550;5.434;2023-04-30T07:21:24;102375.97;;;8.67;100.00
61018;BME280;48171;51.550;5.434;2023-04-30T07:23:50;102369.00;;;8.70;100.00
61018;BME280;48171;51.550;5.434;2023-04-30T07:26:15;102371.72;;;8.73;100.00
61018;BME280;48171;51.550;5.434;2023-04-30T07:28:41;102363.88;;;8.75;100.00
61018;BME280;48171;51.550;5.434;2023-04-30T07:31:06;102357.81;;;8.79;100.00
61018;BME280;48171;51.550;5.434;2023-04-30T07:33:31;102358.75;;;8.82;100.00
61018;BME280;48171;51.550;5.434;2023-04-30T07:35:57;102353.53;;;8.84;100.00
61018;BME280;48171;51.550;5.434;2023-04-30T07:38:23;102352.75;;;8.88;100.00
61018;BME280;48171;51.550;5.434;2023-04-30T07:40:48;102353.81;;;8.96;100.00
61018;BME280;48171;51.550;5.434;2023-04-30T07:43:13;102352.25;;;9.05;100.00
61018;BME280;48171;51.550;5.434;2023-04-30T07:45:39;102351.53;;;9.10;100.00
61018;BME280;48171;51.550;5.434;2023-04-30T07:48:04;102350.78;;;9.16;100.00
61018;BME280;48171;51.550;5.434;2023-04-30T07:50:30;102351.75;;;9.19;100.00
61018;BME280;48171;51.550;5.434;2023-04-30T07:52:58;102358.00;;;9.23;100.00
61018;BME280;48171;51.550;5.434;2023-04-30T07:55:23;102360.69;;;9.26;100.00
61018;BME280;48171;51.550;5.434;2023-04-30T07:57:48;102359.84;;;9.29;100.00
61018;BME280;48171;51.550;5.434;2023-04-30T08:00:13;102359.06;;;9.31;100.00
61018;BME280;48171;51.550;5.434;2023-04-30T08:02:40;102359.09;;;9.34;100.00
61018;BME280;48171;51.550;5.434;2023-04-30T08:05:08;102347.72;;;9.37;100.00
61018;BME280;48171;51.550;5.434;2023-04-30T08:07:33;102353.13;;;9.41;100.00
61018;BME280;48171;51.550;5.434;2023-04-30T08:09:58;102365.53;;;9.47;100.00
61018;BME280;48171;51.550;5.434;2023-04-30T08:12:24;102365.66;;;9.52;100.00
61018;BME280;48171;51.550;5.434;2023-04-30T08:14:49;102367.47;;;9.54;100.00
61018;BME280;48171;51.550;5.434;2023-04-30T08:17:14;102368.44;;;9.58;100.00
61018;BME280;48171;51.550;5.434;2023-04-30T08:19:39;102369.41;;;9.63;100.00
61018;BME280;48171;51.550;5.434;2023-04-30T08:22:05;102369.44;;;9.65;100.00
61018;BME280;48171;51.550;5.434;2023-04-30T08:24:30;102373.13;;;9.73;100.00
61018;BME280;48171;51.550;5.434;2023-04-30T08:26:55;102365.34;;;9.79;100.00
61018;BME280;48171;51.550;5.434;2023-04-30T08:29:21;102367.22;;;9.85;100.00
61018;BME280;48171;51.550;5.434;2023-04-30T08:31:46;102360.25;;;9.88;100.00
61018;BME280;48171;51.550;5.434;2023-04-30T08:34:11;102362.09;;;9.92;100.00
61018;BME280;48171;51.550;5.434;2023-04-30T08:36:36;102367.47;;;9.97;100.00
61018;BME280;48171;51.550;5.434;2023-04-30T08:39:02;102364.16;;;10.07;100.00
61018;BME280;48171;51.550;5.434;2023-04-30T08:41:31;102358.06;;;10.11;100.00
61018;BME280;48171;51.550;5.434;2023-04-30T08:44:01;102357.38;;;10.20;100.00
61018;BME280;48171;51.550;5.434;2023-04-30T08:46:30;102350.41;;;10.25;100.00
61018;BME280;48171;51.550;5.434;2023-04-30T08:48:56;102359.38;;;10.33;100.00
61018;BME280;48171;51.550;5.434;2023-04-30T08:51:23;102361.31;;;10.40;100.00
61018;BME280;48171;51.550;5.434;2023-04-30T08:53:48;102354.31;;;10.46;100.00
61018;BME280;48171;51.550;5.434;2023-04-30T08:56:15;102365.91;;;10.52;100.00
61018;BME280;48171;51.550;5.434;2023-04-30T08:58:40;102353.63;;;10.54;98.36
61018;BME280;48171;51.550;5.434;2023-04-30T09:01:06;102354.53;;;10.58;98.82
61018;BME280;48171;51.550;5.434;2023-04-30T09:03:33;102350.28;;;10.65;100.00
61018;BME280;48171;51.550;5.434;2023-04-30T09:05:58;102363.69;;;10.78;100.00
61018;BME280;48171;51.550;5.434;2023-04-30T09:11:25;102352.41;;;10.87;97.66
61018;BME280;48171;51.550;5.434;2023-04-30T09:13:52;102353.34;;;10.92;98.59
61018;BME280;48171;51.550;5.434;2023-04-30T09:16:18;102356.97;;;10.97;95.24
61018;BME280;48171;51.550;5.434;2023-04-30T09:18:44;102353.63;;;11.11;97.95
61018;BME280;48171;51.550;5.434;2023-04-30T09:21:09;102354.63;;;11.17;95.65
61018;BME280;48171;51.550;5.434;2023-04-30T09:23:35;102352.94;;;11.24;95.77
61018;BME280;48171;51.550;5.434;2023-04-30T09:26:00;102345.97;;;11.28;94.05
61018;BME280;48171;51.550;5.434;2023-04-30T09:28:25;102349.56;;;11.34;94.58
61018;BME280;48171;51.550;5.434;2023-04-30T09:30:55;102350.53;;;11.41;93.66
61018;BME280;48171;51.550;5.434;2023-04-30T09:33:21;102342.69;;;11.46;92.42
61018;BME280;48171;51.550;5.434;2023-04-30T09:35:47;102353.38;;;11.53;92.95
61018;BME280;48171;51.550;5.434;2023-04-30T09:40:50;102341.16;;;11.65;91.38
61018;BME280;48171;51.550;5.434;2023-04-30T09:43:15;102343.88;;;11.71;90.37
61018;BME280;48171;51.550;5.434;2023-04-30T09:45:45;102349.22;;;11.74;90.60
61018;BME280;48171;51.550;5.434;2023-04-30T09:48:14;102351.09;;;11.82;93.01
61018;BME280;48171;51.550;5.434;2023-04-30T09:50:40;102348.59;;;11.92;91.13
61018;BME280;48171;51.550;5.434;2023-04-30T09:53:08;102341.59;;;11.98;89.47
61018;BME280;48171;51.550;5.434;2023-04-30T09:55:36;102345.22;;;12.10;93.95
61018;BME280;48171;51.550;5.434;2023-04-30T09:58:04;102347.97;;;12.17;87.74
61018;BME280;48171;51.550;5.434;2023-04-30T10:00:33;102341.81;;;12.18;87.61
61018;BME280;48171;51.550;5.434;2023-04-30T10:03:00;102344.53;;;12.25;87.60
61018;BME280;48171;51.550;5.434;2023-04-30T10:05:28;102341.88;;;12.28;90.24
61018;BME280;48171;51.550;5.434;2023-04-30T10:07:55;102338.38;;;12.29;87.81
61018;BME280;48171;51.550;5.434;2023-04-30T10:10:21;102340.16;;;12.30;86.79
61018;BME280;48171;51.550;5.434;2023-04-30T10:12:49;102335.75;;;12.32;86.08
61018;BME280;48171;51.550;5.434;2023-04-30T10:15:25;102330.50;;;12.38;85.04
61018;BME280;48171;51.550;5.434;2023-04-30T10:17:59;102334.13;;;12.45;87.87
61018;BME280;48171;51.550;5.434;2023-04-30T10:20:26;102321.78;;;12.50;84.66
61018;BME280;48171;51.550;5.434;2023-04-30T10:22:52;102319.19;;;12.54;86.58
61018;BME280;48171;51.550;5.434;2023-04-30T10:25:18;102318.34;;;12.61;87.71
61018;BME280;48171;51.550;5.434;2023-04-30T10:27:44;102320.19;;;12.72;85.57
61018;BME280;48171;51.550;5.434;2023-04-30T10:30:10;102312.28;;;12.75;84.36
61018;BME280;48171;51.550;5.434;2023-04-30T10:32:47;102316.75;;;12.80;84.45
61018;BME280;48171;51.550;5.434;2023-04-30T10:35:22;102307.91;;;12.83;82.18
61018;BME280;48171;51.550;5.434;2023-04-30T10:37:53;102307.03;;;12.84;81.65
61018;BME280;48171;51.550;5.434;2023-04-30T10:40:19;102300.00;;;12.89;84.44
61018;BME280;48171;51.550;5.434;2023-04-30T10:42:46;102309.78;;;12.95;83.54
61018;BME280;48171;51.550;5.434;2023-04-30T10:45:12;102289.47;;;13.03;84.95
61018;BME280;48171;51.550;5.434;2023-04-30T10:47:41;102301.91;;;13.12;79.58
61018;BME280;48171;51.550;5.434;2023-04-30T10:50:10;102292.19;;;13.14;80.77
61018;BME280;48171;51.550;5.434;2023-04-30T10:52:37;102286.91;;;13.20;80.28
61018;BME280;48171;51.550;5.434;2023-04-30T10:55:06;102287.84;;;13.25;82.44
61018;BME280;48171;51.550;5.434;2023-04-30T10:57:40;102283.47;;;13.35;81.53
61018;BME280;48171;51.550;5.434;2023-04-30T11:02:43;102277.34;;;13.48;82.88
61018;BME280;48171;51.550;5.434;2023-04-30T11:05:13;102270.31;;;13.53;78.63
61018;BME280;48171;51.550;5.434;2023-04-30T11:08:06;102266.75;;;13.59;79.16
61018;BME280;48171;51.550;5.434;2023-04-30T11:10:32;102264.13;;;13.62;77.53
61018;BME280;48171;51.550;5.434;2023-04-30T11:13:03;102265.91;;;13.71;79.10
61018;BME280;48171;51.550;5.434;2023-04-30T11:15:44;102255.34;;;13.82;80.21
61018;BME280;48171;51.550;5.434;2023-04-30T11:18:09;102254.47;;;13.86;77.32
61018;BME280;48171;51.550;5.434;2023-04-30T11:20:39;102254.44;;;13.87;74.72
61018;BME280;48171;51.550;5.434;2023-04-30T11:23:13;102254.47;;;13.90;77.46
61018;BME280;48171;51.550;5.434;2023-04-30T11:25:46;102248.28;;;14.00;80.45
61018;BME280;48171;51.550;5.434;2023-04-30T11:28:16;102243.84;;;14.15;80.17
61018;BME280;48171;51.550;5.434;2023-04-30T11:30:55;102241.19;;;14.38;81.50
61018;BME280;48171;51.550;5.434;2023-04-30T11:33:22;102234.09;;;14.43;75.26
61018;BME280;48171;51.550;5.434;2023-04-30T11:35:48;102232.31;;;14.44;77.34
61018;BME280;48171;51.550;5.434;2023-04-30T11:38:20;102226.13;;;14.41;75.72
61018;BME280;48171;51.550;5.434;2023-04-30T11:40:46;102223.47;;;14.34;72.76
61018;BME280;48171;51.550;5.434;2023-04-30T11:43:28;102221.69;;;14.27;71.71
61018;BME280;48171;51.550;5.434;2023-04-30T11:46:14;102219.03;;;14.30;77.31
61018;BME280;48171;51.550;5.434;2023-04-30T11:48:43;102218.16;;;14.35;75.81
61018;BME280;48171;51.550;5.434;2023-04-30T11:51:22;102216.38;;;14.48;75.15
61018;BME280;48171;51.550;5.434;2023-04-30T11:53:51;102220.78;;;14.54;71.95
61018;BME280;48171;51.550;5.434;2023-04-30T11:56:21;102218.16;;;14.71;78.07
61018;BME280;48171;51.550;5.434;2023-04-30T11:58:49;102211.88;;;14.84;75.22
61018;BME280;48171;51.550;5.434;2023-04-30T12:01:14;102215.41;;;14.92;73.29
61018;BME280;48171;51.550;5.434;2023-04-30T12:03:50;102210.13;;;14.88;71.76
61018;BME280;48171;51.550;5.434;2023-04-30T12:06:21;102213.69;;;14.77;68.55
61018;BME280;48171;51.550;5.434;2023-04-30T12:08:47;102208.38;;;14.76;68.29
61018;BME280;48171;51.550;5.434;2023-04-30T12:11:19;102213.69;;;14.87;73.02
61018;BME280;48171;51.550;5.434;2023-04-30T12:13:57;102203.88;;;14.98;72.00
61018;BME280;48171;51.550;5.434;2023-04-30T12:16:26;102197.63;;;15.08;70.13
61018;BME280;48171;51.550;5.434;2023-04-30T12:18:52;102194.03;;;15.22;71.55
61018;BME280;48171;51.550;5.434;2023-04-30T12:21:17;102201.13;;;15.21;66.19
61018;BME280;48171;51.550;5.434;2023-04-30T12:23:43;102202.03;;;15.17;67.75
61018;BME280;48171;51.550;5.434;2023-04-30T12:26:09;102196.72;;;15.15;66.20
61018;BME280;48171;51.550;5.434;2023-04-30T12:28:34;102190.44;;;15.23;70.04
61018;BME280;48171;51.550;5.434;2023-04-30T12:31:00;102185.97;;;15.34;71.35
61018;BME280;48171;51.550;5.434;2023-04-30T12:33:29;102178.78;;;15.50;71.96
61018;BME280;48171;51.550;5.434;2023-04-30T12:35:55;102184.91;;;15.66;67.50
61018;BME280;48171;51.550;5.434;2023-04-30T12:38:23;102185.75;;;15.69;67.72
61018;BME280;48171;51.550;5.434;2023-04-30T12:40:48;102174.25;;;15.66;63.60
61018;BME280;48171;51.550;5.434;2023-04-30T12:43:15;102176.03;;;15.64;67.16
61018;BME280;48171;51.550;5.434;2023-04-30T12:45:48;102176.06;;;15.57;65.19
61018;BME280;48171;51.550;5.434;2023-04-30T12:48:24;102175.22;;;15.55;67.80
61018;BME280;48171;51.550;5.434;2023-04-30T12:50:57;102173.38;;;15.59;65.55
61018;BME280;48171;51.550;5.434;2023-04-30T12:53:23;102163.59;;;15.63;64.95
61018;BME280;48171;51.550;5.434;2023-04-30T12:56:15;102163.53;;;15.75;67.11
61018;BME280;48171;51.550;5.434;2023-04-30T12:58:44;102167.94;;;15.84;67.07
61018;BME280;48171;51.550;5.434;2023-04-30T13:01:12;102165.19;;;15.94;64.27
61018;BME280;48171;51.550;5.434;2023-04-30T13:03:37;102158.81;;;16.11;67.59
61018;BME280;48171;51.550;5.434;2023-04-30T13:06:03;102153.41;;;16.17;61.74
61018;BME280;48171;51.550;5.434;2023-04-30T13:08:30;102148.09;;;16.18;62.62